createdAt,value
2019-05-18T00:02:25.214Z,62.13
2019-05-18T00:04:54.861Z,82.80
2019-05-18T00:07:24.524Z,112.33
2019-05-18T00:09:54.201Z,87.70
2019-05-18T00:12:23.870Z,117.53
2019-05-18T00:14:53.524Z,69.77
2019-05-18T00:17:25.303Z,86.63
2019-05-18T00:19:54.509Z,65.10
2019-05-18T00:22:24.228Z,67.13
2019-05-18T00:24:53.865Z,62.33
2019-05-18T00:27:23.508Z,66.83
2019-05-18T00:29:53.127Z,50.30
2019-05-18T00:32:22.730Z,59.40
2019-05-18T00:34:52.380Z,48.37
2019-05-18T00:37:22.008Z,49.33
2019-05-18T00:40:10.753Z,47.50
2019-05-18T00:42:40.564Z,93.83
2019-05-18T00:45:10.431Z,114.63
2019-05-18T00:47:41.761Z,112.67
2019-05-18T00:50:11.844Z,65.83
2019-05-18T00:52:41.602Z,48.73
2019-05-18T00:55:11.408Z,52.50
2019-05-18T00:57:41.023Z,79.40
2019-05-18T01:00:11.371Z,49.73
2019-05-18T01:02:41.059Z,49.57
2019-05-18T01:05:11.025Z,44.77
2019-05-18T01:07:40.669Z,46.33
2019-05-18T01:10:10.654Z,51.80
2019-05-18T01:12:40.332Z,54.43
2019-05-18T01:15:10.488Z,49.07
2019-05-18T01:17:40.158Z,51.40
2019-05-18T01:20:10.236Z,52.83
2019-05-18T01:22:39.912Z,55.43
2019-05-18T01:25:09.802Z,53.43
2019-05-18T01:27:41.101Z,53.27
2019-05-18T01:30:13.041Z,47.50
2019-05-18T01:32:42.787Z,53.37
2019-05-18T01:35:13.999Z,36.17
2019-05-18T01:37:43.672Z,34.30
2019-05-18T01:40:13.499Z,43.77
2019-05-18T01:42:43.137Z,73.83
2019-05-18T01:45:17.325Z,54.73
2019-05-18T01:47:45.688Z,48.27
2019-05-18T01:50:15.519Z,61.17
2019-05-18T01:52:45.105Z,87.27
2019-05-18T01:55:14.917Z,42.63
2019-05-18T01:57:44.614Z,157.87
2019-05-18T02:00:14.402Z,87.83
2019-05-18T02:02:43.985Z,67.80
2019-05-18T02:05:14.033Z,56.00
2019-05-18T02:07:43.705Z,74.93
2019-05-18T02:10:13.580Z,74.47
2019-05-18T02:12:43.252Z,43.53
2019-05-18T02:15:12.983Z,45.27
2019-05-18T02:17:42.687Z,40.17
2019-05-18T02:20:12.969Z,108.20
2019-05-18T02:22:42.643Z,43.90
2019-05-18T02:25:31.401Z,42.27
2019-05-18T02:28:01.096Z,36.70
2019-05-18T02:30:30.688Z,38.53
2019-05-18T02:33:00.328Z,36.80
2019-05-18T02:35:48.989Z,39.77
2019-05-18T02:38:21.147Z,36.57
2019-05-18T02:40:50.858Z,35.33
2019-05-18T02:43:20.507Z,32.33
2019-05-18T02:45:50.165Z,33.30
2019-05-18T02:48:19.793Z,33.73
2019-05-18T02:50:49.500Z,28.80
2019-05-18T02:53:19.136Z,29.47
2019-05-18T02:55:48.800Z,42.50
2019-05-18T02:58:18.453Z,49.70
2019-05-18T03:00:48.202Z,57.13
2019-05-18T03:03:17.809Z,54.73
2019-05-18T03:05:50.478Z,52.47
2019-05-18T03:08:20.118Z,56.50
2019-05-18T03:10:49.750Z,51.83
2019-05-18T03:13:19.405Z,51.73
2019-05-18T03:15:49.111Z,60.77
2019-05-18T03:18:18.731Z,62.77
2019-05-18T03:20:48.369Z,66.83
2019-05-18T03:23:17.994Z,66.30
2019-05-18T03:25:47.646Z,62.97
2019-05-18T03:28:17.249Z,62.93
2019-05-18T03:30:46.956Z,55.10
2019-05-18T03:33:16.674Z,56.57
2019-05-18T03:35:46.374Z,58.20
2019-05-18T03:38:16.119Z,56.07
2019-05-18T03:40:45.810Z,57.70
2019-05-18T03:43:15.500Z,55.53
2019-05-18T03:45:45.128Z,59.23
2019-05-18T03:48:14.856Z,55.10
2019-05-18T03:50:44.688Z,54.43
2019-05-18T03:53:18.022Z,49.13
2019-05-18T03:55:45.627Z,59.03
2019-05-18T03:58:15.283Z,55.40
2019-05-18T04:00:45.303Z,61.77
2019-05-18T04:03:14.940Z,56.37
2019-05-18T04:05:44.605Z,44.37
2019-05-18T04:08:14.287Z,58.93
2019-05-18T04:10:44.052Z,50.80
2019-05-18T04:13:13.721Z,57.90
2019-05-18T04:15:43.443Z,53.00
2019-05-18T04:18:13.061Z,47.60
2019-05-18T04:20:42.718Z,52.37
2019-05-18T04:23:12.436Z,49.97
2019-05-18T04:25:43.856Z,56.63
2019-05-18T04:28:14.856Z,56.93
2019-05-18T04:30:44.723Z,55.17
2019-05-18T04:33:15.517Z,56.17
2019-05-18T04:35:45.291Z,60.33
2019-05-18T04:38:33.931Z,65.53
2019-05-18T04:41:03.650Z,57.87
2019-05-18T04:43:33.265Z,62.90
2019-05-18T04:46:02.948Z,60.20
2019-05-18T04:48:32.624Z,62.80
2019-05-18T04:51:21.280Z,65.50
2019-05-18T04:53:50.982Z,59.10
2019-05-18T04:56:21.867Z,57.80
2019-05-18T04:58:54.388Z,64.70
2019-05-18T05:01:24.074Z,61.20
2019-05-18T05:03:53.833Z,54.70
2019-05-18T05:06:23.519Z,67.03
2019-05-18T05:08:53.246Z,70.40
2019-05-18T05:11:22.954Z,64.67
2019-05-18T05:13:52.614Z,58.17
2019-05-18T05:16:22.309Z,57.90
2019-05-18T05:18:51.942Z,56.57
2019-05-18T05:21:21.627Z,53.60
2019-05-18T05:23:51.315Z,51.83
2019-05-18T05:26:21.048Z,51.17
2019-05-18T05:28:50.731Z,54.17
2019-05-18T05:31:20.393Z,54.23
2019-05-18T05:33:50.204Z,49.77
2019-05-18T05:36:19.916Z,59.25
2019-05-18T05:38:49.627Z,50.03
2019-05-18T05:41:38.310Z,50.73
2019-05-18T05:44:08.075Z,52.57
2019-05-18T05:46:37.764Z,53.50
2019-05-18T05:49:07.514Z,50.37
2019-05-18T05:51:37.185Z,46.27
2019-05-18T05:54:06.894Z,40.30
2019-05-18T05:56:36.619Z,38.35
2019-05-18T05:59:06.268Z,44.38
2019-05-18T06:01:35.927Z,38.67
2019-05-18T06:04:05.687Z,36.90
2019-05-18T06:06:35.400Z,32.03
2019-05-18T06:09:09.785Z,32.65
2019-05-18T06:11:39.461Z,31.80
2019-05-18T06:14:09.172Z,35.97
2019-05-18T06:16:38.822Z,29.53
2019-05-18T06:19:08.535Z,31.70
2019-05-18T06:21:38.260Z,31.57
2019-05-18T06:24:07.966Z,38.10
2019-05-18T06:26:37.696Z,30.40
2019-05-18T06:29:07.791Z,35.65
2019-05-18T06:31:37.348Z,35.30
2019-05-18T06:34:07.034Z,31.87
2019-05-18T06:36:37.710Z,31.37
2019-05-18T06:39:08.634Z,35.15
2019-05-18T06:41:41.851Z,27.65
2019-05-18T06:44:11.840Z,35.90
2019-05-18T06:46:44.081Z,28.95
2019-05-18T06:49:14.040Z,39.70
2019-05-18T06:51:43.811Z,36.10
2019-05-18T06:54:13.532Z,34.35
2019-05-18T06:56:44.210Z,31.55
2019-05-18T06:59:18.882Z,30.45
2019-05-18T07:01:48.538Z,28.15
2019-05-18T07:04:18.282Z,31.23
2019-05-18T07:06:47.946Z,30.48
2019-05-18T07:09:19.388Z,32.95
2019-05-18T07:11:49.042Z,31.65
2019-05-18T07:14:25.756Z,33.60
2019-05-18T07:16:50.251Z,37.40
2019-05-18T07:19:19.924Z,25.40
2019-05-18T07:21:49.629Z,39.88
2019-05-18T07:24:21.007Z,38.00
2019-05-18T07:26:50.759Z,32.55
2019-05-18T07:29:20.443Z,31.07
2019-05-18T07:31:50.181Z,33.88
2019-05-18T07:34:19.832Z,34.90
2019-05-18T07:36:49.474Z,36.70
2019-05-18T07:39:19.117Z,32.13
2019-05-18T07:41:48.824Z,34.55
2019-05-18T07:44:18.485Z,34.43
2019-05-18T07:46:48.124Z,33.95
2019-05-18T07:49:17.796Z,33.73
2019-05-18T07:51:47.483Z,36.40
2019-05-18T07:54:17.158Z,32.80
2019-05-18T07:56:46.775Z,31.07
2019-05-18T07:59:19.341Z,36.17
2019-05-18T08:01:47.819Z,41.58
2019-05-18T08:04:17.447Z,38.98
2019-05-18T08:06:47.118Z,43.70
2019-05-18T08:09:16.808Z,41.85
2019-05-18T08:11:46.486Z,44.90
2019-05-18T08:14:16.275Z,41.88
2019-05-18T08:16:45.870Z,41.37
2019-05-18T08:19:15.618Z,40.23
2019-05-18T08:21:53.146Z,41.80
2019-05-18T08:24:16.536Z,50.15
2019-05-18T08:26:46.215Z,36.60
2019-05-18T08:29:15.846Z,36.53
2019-05-18T08:31:45.517Z,33.15
2019-05-18T08:34:34.222Z,37.00
2019-05-18T08:37:03.829Z,36.63
2019-05-18T08:39:33.512Z,34.38
2019-05-18T08:42:03.245Z,34.05
2019-05-18T08:44:32.990Z,37.35
2019-05-18T08:47:03.112Z,38.00
2019-05-18T08:49:32.771Z,36.33
2019-05-18T08:52:08.509Z,33.63
2019-05-18T08:54:33.704Z,46.75
2019-05-18T08:57:05.058Z,43.28
2019-05-18T08:59:34.673Z,37.60
2019-05-18T09:02:05.424Z,31.60
2019-05-18T09:04:54.223Z,29.20
2019-05-18T09:07:23.883Z,30.23
2019-05-18T09:09:53.715Z,29.87
2019-05-18T09:12:23.330Z,30.60
2019-05-18T09:14:52.945Z,26.07
2019-05-18T09:17:22.705Z,23.38
2019-05-18T09:19:52.399Z,27.20
2019-05-18T09:22:23.384Z,27.27
2019-05-18T09:24:53.297Z,24.98
2019-05-18T09:27:22.980Z,24.90
2019-05-18T09:29:52.928Z,25.00
2019-05-18T09:32:22.597Z,20.62
2019-05-18T09:34:52.601Z,27.15
2019-05-18T09:37:22.240Z,22.07
2019-05-18T09:39:52.144Z,24.92
2019-05-18T09:42:21.835Z,26.05
2019-05-18T09:44:51.520Z,21.95
2019-05-18T09:47:21.231Z,23.65
2019-05-18T09:49:51.005Z,21.68
2019-05-18T09:52:20.796Z,21.33
2019-05-18T09:54:51.642Z,20.43
2019-05-18T09:57:21.298Z,18.80
2019-05-18T09:59:51.025Z,19.27
2019-05-18T10:02:22.128Z,21.23
2019-05-18T10:04:51.871Z,26.55
2019-05-18T10:07:24.562Z,19.12
2019-05-18T10:09:54.266Z,21.17
2019-05-18T10:12:24.839Z,20.92
2019-05-18T10:14:54.726Z,18.07
2019-05-18T10:17:43.407Z,22.17
2019-05-18T10:20:13.533Z,18.87
2019-05-18T10:22:55.042Z,15.25
2019-05-18T10:25:14.809Z,18.77
2019-05-18T10:27:44.457Z,16.23
2019-05-18T10:30:14.467Z,16.95
2019-05-18T10:32:44.189Z,15.95
2019-05-18T10:35:15.952Z,15.53
2019-05-18T10:37:57.606Z,16.37
2019-05-18T10:40:27.352Z,15.72
2019-05-18T10:42:56.993Z,18.17
2019-05-18T10:45:26.637Z,18.35
2019-05-18T10:47:56.347Z,16.93
2019-05-18T10:50:25.928Z,13.10
2019-05-18T10:52:55.545Z,14.33
2019-05-18T10:55:25.239Z,13.83
2019-05-18T10:57:54.916Z,15.90
2019-05-18T11:00:24.829Z,13.60
2019-05-18T11:02:54.544Z,16.25
2019-05-18T11:05:24.266Z,17.00
2019-05-18T11:07:53.959Z,17.45
2019-05-18T11:10:23.939Z,12.82
2019-05-18T11:12:53.554Z,12.33
2019-05-18T11:15:23.511Z,17.60
2019-05-18T11:17:53.187Z,17.77
2019-05-18T11:20:22.934Z,12.43
2019-05-18T11:22:52.728Z,11.50
2019-05-18T11:25:22.457Z,12.53
2019-05-18T11:27:52.142Z,15.08
2019-05-18T11:30:23.288Z,14.25
2019-05-18T11:32:54.761Z,12.05
2019-05-18T11:35:24.689Z,12.35
2019-05-18T11:37:54.387Z,13.18
2019-05-18T11:40:43.044Z,12.37
2019-05-18T11:43:12.815Z,12.88
2019-05-18T11:45:42.427Z,12.35
2019-05-18T11:48:12.169Z,10.58
2019-05-18T11:50:41.806Z,12.80
2019-05-18T11:53:11.470Z,11.68
2019-05-18T11:55:41.111Z,11.43
2019-05-18T11:58:10.744Z,12.28
2019-05-18T12:00:40.425Z,9.55
2019-05-18T12:03:10.055Z,11.63
2019-05-18T12:05:39.752Z,13.40
2019-05-18T12:08:09.496Z,11.38
2019-05-18T12:10:39.258Z,13.00
2019-05-18T12:13:08.889Z,10.38
2019-05-18T12:15:38.585Z,14.03
2019-05-18T12:18:08.204Z,11.50
2019-05-18T12:20:37.843Z,11.10
2019-05-18T12:23:08.485Z,9.30
2019-05-18T12:25:38.607Z,10.32
2019-05-18T12:28:08.395Z,10.43
2019-05-18T12:30:38.189Z,16.10
2019-05-18T12:33:07.869Z,10.55
2019-05-18T12:35:37.567Z,13.83
2019-05-18T12:38:07.207Z,12.55
2019-05-18T12:40:36.915Z,14.38
2019-05-18T12:43:09.918Z,13.68
2019-05-18T12:45:39.647Z,14.65
2019-05-18T12:48:09.481Z,16.12
2019-05-18T12:50:41.825Z,22.45
2019-05-18T12:53:11.474Z,15.98
2019-05-18T12:55:41.113Z,16.40
2019-05-18T12:58:10.751Z,14.07
2019-05-18T13:00:40.382Z,16.77
2019-05-18T13:03:09.996Z,14.83
2019-05-18T13:05:39.734Z,13.68
2019-05-18T13:08:09.409Z,14.47
2019-05-18T13:10:39.225Z,11.88
2019-05-18T13:13:08.890Z,15.53
2019-05-18T13:15:38.589Z,10.18
2019-05-18T13:18:08.345Z,16.35
2019-05-18T13:20:37.955Z,10.75
2019-05-18T13:23:07.601Z,10.85
2019-05-18T13:25:37.256Z,10.93
2019-05-18T13:28:06.877Z,8.63
2019-05-18T13:30:36.555Z,9.53
2019-05-18T13:33:06.190Z,7.72
2019-05-18T13:35:35.812Z,11.85
2019-05-18T13:38:05.489Z,8.83
2019-05-18T13:40:35.093Z,7.45
2019-05-18T13:43:04.692Z,9.05
2019-05-18T13:45:34.377Z,9.03
2019-05-18T13:48:04.024Z,10.65
2019-05-18T13:50:33.645Z,12.78
2019-05-18T13:53:03.313Z,10.43
2019-05-18T13:55:32.928Z,9.45
2019-05-18T13:58:02.553Z,8.93
2019-05-18T14:00:32.213Z,9.20
2019-05-18T14:03:01.991Z,8.60
2019-05-18T14:05:31.650Z,8.98
2019-05-18T14:08:01.302Z,9.58
2019-05-18T14:10:30.963Z,8.08
2019-05-18T14:13:00.752Z,10.13
2019-05-18T14:15:30.349Z,9.03
2019-05-18T14:17:59.959Z,7.62
2019-05-18T14:20:29.574Z,8.78
2019-05-18T14:22:59.228Z,8.63
2019-05-18T14:25:28.820Z,9.43
2019-05-18T14:27:58.450Z,7.12
2019-05-18T14:30:28.132Z,6.70
2019-05-18T14:32:57.788Z,6.97
2019-05-18T14:35:27.415Z,11.25
2019-05-18T14:37:57.052Z,8.28
2019-05-18T14:40:26.709Z,9.00
2019-05-18T14:42:56.443Z,7.75
2019-05-18T14:45:26.216Z,7.80
2019-05-18T14:47:55.862Z,9.60
2019-05-18T14:50:25.585Z,7.12
2019-05-18T14:52:55.248Z,6.85
2019-05-18T14:55:33.400Z,6.50
2019-05-18T14:57:56.157Z,10.05
2019-05-18T15:00:25.879Z,8.08
2019-05-18T15:02:55.497Z,7.83
2019-05-18T15:05:25.185Z,6.95
2019-05-18T15:07:54.776Z,7.33
2019-05-18T15:10:24.390Z,7.75
2019-05-18T15:12:54.056Z,8.15
2019-05-18T15:15:23.689Z,8.28
2019-05-18T15:17:53.287Z,10.03
2019-05-18T15:20:41.927Z,8.93
2019-05-18T15:23:11.608Z,10.08
2019-05-18T15:25:50.101Z,9.05
2019-05-18T15:28:12.497Z,8.20
2019-05-18T15:30:42.117Z,10.08
2019-05-18T15:33:11.782Z,9.78
2019-05-18T15:35:41.525Z,8.43
2019-05-18T15:38:11.175Z,8.40
2019-05-18T15:40:40.778Z,8.75
2019-05-18T15:43:10.419Z,7.90
2019-05-18T15:45:40.272Z,7.15
2019-05-18T15:48:10.364Z,6.42
2019-05-18T15:50:40.037Z,6.40
2019-05-18T15:53:09.769Z,10.03
2019-05-18T15:55:39.537Z,8.60
2019-05-18T15:58:09.147Z,6.33
2019-05-18T16:00:38.903Z,7.75
2019-05-18T16:03:08.743Z,6.22
2019-05-18T16:05:38.524Z,6.90
2019-05-18T16:08:08.273Z,8.50
2019-05-18T16:10:37.916Z,8.55
2019-05-18T16:13:07.586Z,7.60
2019-05-18T16:15:37.204Z,12.40
2019-05-18T16:18:06.926Z,11.63
2019-05-18T16:20:36.620Z,8.98
2019-05-18T16:23:06.279Z,9.18
2019-05-18T16:25:35.987Z,8.90
2019-05-18T16:28:05.723Z,7.67
2019-05-18T16:30:35.397Z,8.33
2019-05-18T16:33:05.121Z,7.90
2019-05-18T16:35:34.734Z,8.53
2019-05-18T16:38:04.314Z,7.35
2019-05-18T16:40:33.981Z,8.35
2019-05-18T16:43:03.621Z,7.10
2019-05-18T16:45:33.289Z,8.80
2019-05-18T16:48:03.735Z,10.75
2019-05-18T16:50:33.337Z,8.15
2019-05-18T16:53:03.146Z,9.03
2019-05-18T16:55:33.011Z,8.95
2019-05-18T16:58:02.667Z,7.75
2019-05-18T17:00:32.349Z,6.10
2019-05-18T17:03:02.118Z,8.60
2019-05-18T17:05:35.873Z,8.88
2019-05-18T17:08:10.152Z,9.28
2019-05-18T17:10:39.766Z,11.15
2019-05-18T17:13:09.647Z,8.10
2019-05-18T17:15:39.399Z,9.63
2019-05-18T17:18:09.055Z,11.70
2019-05-18T17:20:45.788Z,9.28
2019-05-18T17:23:12.828Z,13.50
2019-05-18T17:25:42.426Z,10.03
2019-05-18T17:28:12.136Z,14.63
2019-05-18T17:30:42.847Z,12.50
2019-05-18T17:33:12.618Z,11.50
2019-05-18T17:35:42.397Z,12.13
2019-05-18T17:38:12.013Z,9.05
2019-05-18T17:40:41.676Z,8.63
2019-05-18T17:43:11.311Z,10.25
2019-05-18T17:45:40.957Z,11.35
2019-05-18T17:48:10.732Z,9.08
2019-05-18T17:50:40.377Z,13.78
2019-05-18T17:53:10.055Z,10.45
2019-05-18T17:55:39.692Z,14.23
2019-05-18T17:58:09.636Z,10.32
2019-05-18T18:00:49.709Z,13.20
2019-05-18T18:07:58.687Z,16.48
2019-05-18T18:15:14.331Z,12.82
2019-05-18T18:18:34.863Z,13.25
2019-05-18T18:25:37.214Z,14.47
2019-05-18T18:28:43.467Z,10.68
2019-05-18T18:31:47.307Z,11.48
2019-05-18T18:34:25.306Z,13.25
2019-05-18T18:37:02.950Z,14.25
2019-05-18T18:39:55.454Z,23.73
2019-05-18T18:46:26.321Z,17.82
2019-05-18T18:49:09.955Z,16.40
2019-05-18T19:10:24.181Z,18.12
2019-05-18T19:20:45.954Z,13.62
2019-05-18T19:23:56.266Z,19.27
2019-05-18T19:31:13.719Z,11.97
2019-05-18T19:37:33.906Z,17.00
2019-05-18T19:44:30.113Z,18.92
2019-05-18T19:49:20.925Z,12.82
2019-05-18T19:54:33.195Z,15.93
2019-05-18T20:35:37.895Z,23.05
2019-05-18T20:38:19.832Z,21.80
2019-05-18T20:41:09.473Z,22.52
2019-05-18T20:47:48.751Z,22.62
2019-05-18T20:50:32.787Z,31.73
2019-05-18T20:53:22.020Z,29.82
2019-05-18T20:56:24.681Z,22.05
2019-05-18T21:13:08.491Z,19.30
2019-05-18T21:18:00.180Z,20.45
2019-05-18T21:27:23.894Z,32.53
2019-05-18T21:29:06.660Z,30.75
2019-05-18T21:33:07.004Z,26.33
2019-05-18T21:51:20.188Z,24.23
2019-05-18T21:55:36.065Z,23.50
2019-05-18T21:59:11.065Z,26.12
2019-05-18T22:00:36.621Z,32.08
2019-05-18T22:07:09.319Z,27.50
2019-05-18T22:10:24.440Z,25.43
2019-05-18T22:16:43.675Z,27.40
2019-05-18T22:20:48.312Z,26.45
2019-05-18T22:28:04.136Z,25.35
2019-05-18T22:37:11.042Z,22.80
2019-05-18T22:58:26.841Z,22.67
2019-05-18T23:01:31.228Z,23.92
2019-05-18T23:04:11.767Z,19.80
2019-05-18T23:06:50.120Z,22.87
2019-05-18T23:10:15.730Z,27.10
2019-05-18T23:13:15.443Z,24.20
2019-05-18T23:18:34.231Z,20.08
2019-05-18T23:24:52.461Z,25.50
2019-05-18T23:27:48.977Z,23.30
2019-05-18T23:35:19.697Z,23.77
2019-05-18T23:38:01.897Z,22.70
2019-05-18T23:40:36.732Z,25.48
2019-05-18T23:43:47.378Z,24.70
2019-05-18T23:46:37.974Z,24.65
2019-05-18T23:49:10.896Z,28.45
2019-05-18T23:52:07.017Z,23.00
2019-05-18T23:56:02.926Z,26.35
